createdAt,value
2019-03-17T00:00:00.455Z,7.90
2019-03-17T00:02:37.464Z,7.90
2019-03-17T00:05:14.623Z,7.90
2019-03-17T00:07:51.673Z,7.90
2019-03-17T00:10:30.256Z,7.90
2019-03-17T00:13:07.285Z,7.90
2019-03-17T00:15:44.371Z,7.90
2019-03-17T00:18:21.400Z,7.90
2019-03-17T00:20:58.491Z,7.90
2019-03-17T00:23:35.927Z,7.90
2019-03-17T00:26:13.500Z,7.90
2019-03-17T00:28:51.113Z,7.90
2019-03-17T00:31:28.577Z,7.90
2019-03-17T00:34:06.277Z,7.90
2019-03-17T00:36:43.396Z,7.90
2019-03-17T00:42:11.077Z,8.00
2019-03-17T00:44:48.136Z,8.00
2019-03-17T00:47:25.346Z,8.00
2019-03-17T00:50:02.365Z,8.00
2019-03-17T00:52:39.449Z,8.00
2019-03-17T00:55:16.489Z,8.00
2019-03-17T00:57:53.554Z,8.00
2019-03-17T01:00:30.703Z,8.10
2019-03-17T01:05:53.066Z,8.10
2019-03-17T01:08:30.150Z,8.10
2019-03-17T01:11:07.812Z,8.10
2019-03-17T01:13:44.874Z,8.10
2019-03-17T01:16:21.909Z,8.10
2019-03-17T01:18:59.906Z,8.20
2019-03-17T01:21:37.265Z,8.20
2019-03-17T01:24:14.373Z,8.20
2019-03-17T01:26:51.412Z,8.20
2019-03-17T01:29:28.507Z,8.20
2019-03-17T01:32:05.908Z,8.20
2019-03-17T01:34:42.960Z,8.20
2019-03-17T01:37:20.095Z,8.20
2019-03-17T01:39:57.149Z,8.10
2019-03-17T01:42:34.151Z,8.10
2019-03-17T01:45:11.246Z,8.10
2019-03-17T01:47:48.273Z,8.10
2019-03-17T01:50:25.352Z,8.10
2019-03-17T01:53:02.354Z,8.10
2019-03-17T01:55:39.452Z,8.10
2019-03-17T01:58:16.599Z,8.00
2019-03-17T02:00:53.854Z,8.00
2019-03-17T02:03:34.065Z,8.00
2019-03-17T02:06:11.146Z,8.00
2019-03-17T02:08:50.088Z,8.00
2019-03-17T02:11:28.028Z,8.00
2019-03-17T02:14:06.614Z,8.00
2019-03-17T02:16:51.711Z,8.00
2019-03-17T02:19:31.222Z,8.00
2019-03-17T02:22:13.857Z,8.00
2019-03-17T02:24:54.183Z,8.00
2019-03-17T02:27:33.283Z,8.00
2019-03-17T02:30:18.619Z,8.00
2019-03-17T02:33:05.012Z,8.00
2019-03-17T02:35:49.916Z,8.00
2019-03-17T02:38:27.076Z,8.00
2019-03-17T02:41:09.728Z,7.90
2019-03-17T02:43:51.237Z,7.90
2019-03-17T02:46:28.395Z,7.90
2019-03-17T02:49:08.776Z,7.90
2019-03-17T02:51:47.977Z,7.90
2019-03-17T02:54:26.986Z,7.80
2019-03-17T02:57:04.127Z,7.80
2019-03-17T02:59:41.278Z,7.80
2019-03-17T03:02:18.459Z,7.80
2019-03-17T03:04:57.168Z,7.70
2019-03-17T03:07:36.766Z,7.70
2019-03-17T03:10:17.298Z,7.70
2019-03-17T03:13:02.546Z,7.60
2019-03-17T03:15:41.381Z,7.50
2019-03-17T03:18:29.629Z,7.50
2019-03-17T03:21:13.494Z,7.40
2019-03-17T03:23:56.635Z,7.30
2019-03-17T03:26:35.098Z,7.30
2019-03-17T03:29:12.172Z,7.20
2019-03-17T03:31:54.972Z,7.10
2019-03-17T03:34:45.916Z,7.00
2019-03-17T03:37:27.166Z,7.00
2019-03-17T03:40:12.348Z,6.90
2019-03-17T03:42:52.041Z,6.80
2019-03-17T03:45:34.484Z,6.70
2019-03-17T03:48:19.737Z,6.60
2019-03-17T03:50:55.106Z,6.60
2019-03-17T03:53:34.166Z,6.50
2019-03-17T03:56:21.518Z,6.40
2019-03-17T03:58:59.240Z,6.40
2019-03-17T04:01:39.008Z,6.30
2019-03-17T04:07:06.966Z,6.20
2019-03-17T04:09:47.098Z,6.10
2019-03-17T04:12:24.383Z,6.10
2019-03-17T04:15:07.513Z,6.00
2019-03-17T04:17:44.923Z,6.00
2019-03-17T04:20:22.382Z,6.00
2019-03-17T04:23:00.864Z,6.00
2019-03-17T04:25:43.391Z,5.90
2019-03-17T04:28:26.421Z,5.90
2019-03-17T04:31:05.158Z,5.80
2019-03-17T04:33:46.852Z,5.80
2019-03-17T04:36:39.549Z,5.70
2019-03-17T04:39:13.450Z,5.70
2019-03-17T04:42:04.821Z,5.60
2019-03-17T04:44:46.952Z,5.50
2019-03-17T04:47:30.780Z,5.50
2019-03-17T04:50:16.107Z,5.40
2019-03-17T04:52:55.170Z,5.40
2019-03-17T04:55:44.836Z,5.30
2019-03-17T04:58:25.897Z,5.30
2019-03-17T05:01:11.496Z,5.30
2019-03-17T05:03:52.786Z,5.30
2019-03-17T05:06:33.315Z,5.30
2019-03-17T05:09:19.300Z,5.30
2019-03-17T05:12:14.513Z,5.40
2019-03-17T05:15:01.830Z,5.40
2019-03-17T05:17:51.369Z,5.40
2019-03-17T05:20:31.323Z,5.40
2019-03-17T05:23:08.957Z,5.40
2019-03-17T05:25:50.575Z,5.40
2019-03-17T05:28:50.841Z,5.40
2019-03-17T05:31:29.958Z,5.50
2019-03-17T05:34:18.432Z,5.50
2019-03-17T05:37:06.282Z,5.50
2019-03-17T05:39:37.682Z,5.50
2019-03-17T05:42:15.142Z,5.50
2019-03-17T05:44:57.502Z,5.50
2019-03-17T05:47:39.128Z,5.60
2019-03-17T05:50:29.914Z,5.60
2019-03-17T05:53:17.038Z,5.70
2019-03-17T05:56:00.158Z,5.70
2019-03-17T05:58:40.901Z,5.70
2019-03-17T06:01:18.396Z,5.80
2019-03-17T06:03:55.559Z,5.90
2019-03-17T06:06:32.867Z,5.90
2019-03-17T06:09:10.594Z,6.00
2019-03-17T06:11:47.693Z,6.10
2019-03-17T06:14:24.843Z,6.20
2019-03-17T06:17:01.974Z,6.30
2019-03-17T06:19:39.126Z,6.40
2019-03-17T06:22:16.292Z,6.50
2019-03-17T06:24:53.383Z,6.60
2019-03-17T06:27:30.440Z,6.70
2019-03-17T06:30:13.781Z,6.70
2019-03-17T06:32:50.928Z,6.80
2019-03-17T06:35:27.998Z,6.90
2019-03-17T06:38:05.107Z,7.00
2019-03-17T06:40:42.239Z,7.00
2019-03-17T06:43:19.384Z,7.10
2019-03-17T06:45:56.565Z,7.10
2019-03-17T06:48:33.673Z,7.10
2019-03-17T06:51:10.736Z,7.20
2019-03-17T06:53:56.419Z,7.20
2019-03-17T06:56:27.445Z,7.30
2019-03-17T06:59:04.510Z,7.30
2019-03-17T07:01:41.519Z,7.40
2019-03-17T07:04:23.913Z,7.50
2019-03-17T07:07:01.672Z,7.60
2019-03-17T07:09:38.875Z,7.70
2019-03-17T07:12:15.917Z,7.80
2019-03-17T07:14:53.032Z,7.90
2019-03-17T07:17:30.028Z,8.00
2019-03-17T07:20:10.080Z,8.00
2019-03-17T07:22:47.115Z,8.10
2019-03-17T07:25:24.195Z,8.10
2019-03-17T07:28:01.253Z,8.20
2019-03-17T07:30:38.300Z,8.30
2019-03-17T07:33:15.355Z,8.40
2019-03-17T07:35:52.432Z,8.60
2019-03-17T07:38:29.424Z,8.70
2019-03-17T07:41:07.316Z,8.80
2019-03-17T07:43:44.308Z,9.00
2019-03-17T07:46:21.353Z,9.30
2019-03-17T07:48:58.380Z,9.70
2019-03-17T07:51:35.451Z,10.10
2019-03-17T07:54:12.448Z,10.40
2019-03-17T07:56:49.587Z,10.70
2019-03-17T07:59:26.600Z,11.00
2019-03-17T08:02:03.689Z,11.30
2019-03-17T08:04:43.098Z,11.80
2019-03-17T08:07:20.157Z,12.20
2019-03-17T08:09:59.616Z,12.70
2019-03-17T08:12:36.713Z,13.20
2019-03-17T08:15:14.529Z,13.40
2019-03-17T08:17:51.599Z,13.80
2019-03-17T08:20:28.689Z,14.10
2019-03-17T08:23:05.775Z,14.40
2019-03-17T08:25:42.753Z,14.70
2019-03-17T08:28:19.832Z,15.00
2019-03-17T08:30:56.846Z,15.20
2019-03-17T08:33:33.912Z,15.40
2019-03-17T08:36:11.528Z,15.60
2019-03-17T08:38:49.144Z,15.80
2019-03-17T08:41:26.763Z,16.00
2019-03-17T08:44:04.373Z,16.10
2019-03-17T08:46:41.952Z,16.30
2019-03-17T08:49:19.596Z,16.40
2019-03-17T08:51:57.201Z,16.30
2019-03-17T08:54:34.839Z,16.30
2019-03-17T08:57:12.391Z,16.50
2019-03-17T08:59:50.020Z,16.40
2019-03-17T09:02:29.255Z,16.30
2019-03-17T09:05:07.202Z,16.20
2019-03-17T09:07:44.800Z,16.20
2019-03-17T09:10:22.422Z,16.00
2019-03-17T09:13:00.047Z,15.80
2019-03-17T09:15:37.660Z,15.60
2019-03-17T09:18:15.264Z,15.40
2019-03-17T09:20:52.887Z,15.30
2019-03-17T09:23:29.934Z,15.10
2019-03-17T09:26:07.583Z,15.10
2019-03-17T09:28:44.588Z,15.00
2019-03-17T09:31:21.666Z,15.00
2019-03-17T09:33:58.688Z,15.00
2019-03-17T09:36:35.776Z,15.00
2019-03-17T09:39:12.793Z,15.00
2019-03-17T09:41:50.686Z,15.10
2019-03-17T09:44:27.711Z,15.10
2019-03-17T09:47:04.744Z,15.20
2019-03-17T09:49:41.757Z,15.20
2019-03-17T09:52:18.785Z,15.30
2019-03-17T09:54:55.804Z,15.40
2019-03-17T09:57:33.423Z,15.50
2019-03-17T10:00:15.706Z,15.60
2019-03-17T10:02:53.324Z,15.70
2019-03-17T10:05:32.350Z,15.80
2019-03-17T10:08:09.946Z,15.90
2019-03-17T10:10:47.576Z,16.00
2019-03-17T10:13:24.617Z,16.00
2019-03-17T10:16:02.797Z,16.10
2019-03-17T10:18:40.400Z,16.20
2019-03-17T10:21:18.027Z,16.30
2019-03-17T10:23:55.629Z,16.40
2019-03-17T10:26:33.729Z,16.50
2019-03-17T10:29:11.369Z,16.60
2019-03-17T10:31:48.995Z,16.70
2019-03-17T10:34:26.585Z,16.80
2019-03-17T10:37:04.178Z,16.90
2019-03-17T10:39:41.775Z,17.00
2019-03-17T10:42:22.968Z,17.10
2019-03-17T10:45:00.581Z,17.00
2019-03-17T10:47:38.197Z,17.00
2019-03-17T10:50:17.908Z,17.00
2019-03-17T10:52:55.507Z,17.00
2019-03-17T10:55:33.848Z,17.00
2019-03-17T10:58:11.476Z,17.00
2019-03-17T11:00:49.068Z,17.00
2019-03-17T11:03:26.664Z,17.20
2019-03-17T11:06:04.269Z,17.40
2019-03-17T11:08:41.858Z,17.60
2019-03-17T11:11:19.475Z,17.80
2019-03-17T11:13:57.068Z,18.00
2019-03-17T11:16:34.722Z,18.10
2019-03-17T11:19:12.349Z,18.30
2019-03-17T11:21:51.102Z,18.40
2019-03-17T11:24:29.794Z,18.60
2019-03-17T11:27:07.429Z,18.60
2019-03-17T11:29:45.248Z,18.70
2019-03-17T11:32:22.823Z,18.80
2019-03-17T11:35:02.122Z,18.80
2019-03-17T11:37:39.708Z,18.90
2019-03-17T11:40:18.373Z,18.90
2019-03-17T11:42:55.989Z,19.00
2019-03-17T11:45:33.599Z,19.10
2019-03-17T11:48:11.192Z,19.10
2019-03-17T11:50:48.881Z,19.10
2019-03-17T11:53:26.495Z,19.10
2019-03-17T11:56:04.132Z,19.20
2019-03-17T11:58:41.758Z,19.20
2019-03-17T12:01:19.357Z,19.30
2019-03-17T12:03:58.280Z,19.30
2019-03-17T12:06:35.916Z,19.30
2019-03-17T12:09:13.550Z,19.30
2019-03-17T12:11:51.170Z,19.30
2019-03-17T12:14:28.843Z,19.40
2019-03-17T12:17:06.461Z,19.40
2019-03-17T12:19:44.124Z,19.40
2019-03-17T12:22:21.737Z,19.40
2019-03-17T12:24:59.380Z,19.40
2019-03-17T12:27:37.175Z,19.50
2019-03-17T12:30:20.516Z,19.50
2019-03-17T12:32:58.127Z,19.50
2019-03-17T12:35:35.733Z,19.50
2019-03-17T12:38:13.348Z,19.50
2019-03-17T12:40:50.961Z,19.50
2019-03-17T12:43:28.637Z,19.50
2019-03-17T12:46:06.261Z,19.50
2019-03-17T12:48:43.874Z,19.60
2019-03-17T12:51:21.502Z,19.60
2019-03-17T12:53:59.132Z,19.70
2019-03-17T12:56:36.764Z,19.70
2019-03-17T12:59:14.367Z,19.80
2019-03-17T13:01:52.022Z,19.80
2019-03-17T13:04:29.640Z,19.80
2019-03-17T13:07:07.290Z,19.80
2019-03-17T13:09:45.008Z,19.80
2019-03-17T13:12:22.626Z,19.80
2019-03-17T13:15:00.513Z,19.90
2019-03-17T13:17:38.569Z,19.90
2019-03-17T13:20:20.872Z,19.90
2019-03-17T13:22:58.501Z,19.90
2019-03-17T13:25:36.169Z,19.90
2019-03-17T13:28:13.887Z,19.90
2019-03-17T13:30:52.069Z,19.80
2019-03-17T13:33:29.699Z,19.80
2019-03-17T13:36:07.287Z,19.80
2019-03-17T13:38:44.908Z,19.90
2019-03-17T13:41:22.494Z,19.90
2019-03-17T13:44:00.115Z,20.00
2019-03-17T13:46:37.710Z,20.00
2019-03-17T13:49:15.422Z,20.00
2019-03-17T13:51:53.005Z,20.00
2019-03-17T13:54:30.676Z,20.00
2019-03-17T13:57:09.414Z,20.10
2019-03-17T13:59:48.727Z,20.10
2019-03-17T14:02:26.374Z,20.10
2019-03-17T14:05:04.820Z,20.00
2019-03-17T14:07:42.403Z,20.00
2019-03-17T14:10:20.618Z,20.00
2019-03-17T14:12:58.191Z,20.00
2019-03-17T14:15:35.833Z,19.90
2019-03-17T14:18:13.404Z,19.90
2019-03-17T14:20:51.108Z,19.90
2019-03-17T14:23:28.643Z,19.90
2019-03-17T14:26:06.257Z,19.90
2019-03-17T14:28:43.913Z,19.90
2019-03-17T14:31:21.504Z,19.90
2019-03-17T14:33:59.146Z,19.90
2019-03-17T14:36:36.717Z,19.90
2019-03-17T14:39:14.344Z,19.80
2019-03-17T14:41:51.965Z,19.90
2019-03-17T14:44:29.559Z,19.90
2019-03-17T14:47:07.152Z,19.90
2019-03-17T14:49:44.783Z,19.90
2019-03-17T14:52:22.353Z,19.80
2019-03-17T14:54:59.944Z,19.80
2019-03-17T14:57:37.567Z,19.80
2019-03-17T15:00:22.473Z,19.80
2019-03-17T15:03:00.068Z,19.80
2019-03-17T15:05:40.611Z,19.70
2019-03-17T15:08:18.252Z,19.70
2019-03-17T15:11:05.328Z,19.70
2019-03-17T15:13:35.074Z,19.60
2019-03-17T15:16:12.723Z,19.70
2019-03-17T15:18:50.309Z,19.60
2019-03-17T15:21:28.387Z,19.60
2019-03-17T15:24:09.480Z,19.50
2019-03-17T15:26:55.652Z,19.50
2019-03-17T15:29:33.749Z,19.50
2019-03-17T15:32:12.635Z,19.40
2019-03-17T15:34:52.151Z,19.40
2019-03-17T15:37:32.768Z,19.40
2019-03-17T15:40:19.415Z,19.30
2019-03-17T15:42:57.128Z,19.30
2019-03-17T15:45:34.754Z,19.20
2019-03-17T15:48:12.865Z,19.20
2019-03-17T15:50:50.491Z,19.10
2019-03-17T15:53:28.403Z,19.00
2019-03-17T15:56:06.774Z,19.00
2019-03-17T15:58:45.133Z,18.90
2019-03-17T16:01:23.174Z,18.80
2019-03-17T16:04:00.769Z,18.70
2019-03-17T16:06:38.394Z,18.70
2019-03-17T16:09:16.017Z,18.60
2019-03-17T16:11:53.646Z,18.50
2019-03-17T16:14:31.271Z,18.40
2019-03-17T16:17:08.882Z,18.30
2019-03-17T16:19:46.538Z,18.20
2019-03-17T16:22:24.154Z,18.10
2019-03-17T16:25:03.023Z,18.00
2019-03-17T16:27:40.601Z,17.90
2019-03-17T16:30:28.522Z,17.80
2019-03-17T16:33:06.107Z,17.70
2019-03-17T16:35:46.281Z,17.50
2019-03-17T16:38:22.975Z,17.40
2019-03-17T16:41:01.705Z,17.30
2019-03-17T16:43:39.320Z,17.20
2019-03-17T16:46:16.972Z,17.10
2019-03-17T16:48:54.592Z,17.00
2019-03-17T16:51:32.202Z,16.80
2019-03-17T16:54:09.817Z,16.70
2019-03-17T16:56:49.649Z,16.60
2019-03-17T16:59:27.261Z,16.50
2019-03-17T17:02:04.882Z,16.50
2019-03-17T17:04:42.489Z,16.40
2019-03-17T17:07:20.136Z,16.30
2019-03-17T17:09:57.754Z,16.30
2019-03-17T17:12:36.369Z,16.30
2019-03-17T17:15:18.749Z,16.30
2019-03-17T17:17:55.858Z,16.30
2019-03-17T17:20:40.148Z,16.30
2019-03-17T17:23:17.948Z,16.30
2019-03-17T17:25:55.633Z,16.30
2019-03-17T17:28:33.208Z,16.30
2019-03-17T17:31:11.598Z,16.30
2019-03-17T17:33:49.262Z,16.30
2019-03-17T17:36:26.969Z,16.20
2019-03-17T17:39:08.908Z,16.10
2019-03-17T17:41:46.566Z,16.10
2019-03-17T17:44:23.574Z,16.00
2019-03-17T17:47:01.397Z,15.90
2019-03-17T17:49:38.612Z,15.70
2019-03-17T17:52:16.045Z,15.60
2019-03-17T17:54:53.100Z,15.50
2019-03-17T17:57:30.158Z,15.40
2019-03-17T18:00:17.792Z,15.30
2019-03-17T18:02:55.037Z,15.20
2019-03-17T18:05:32.127Z,15.20
2019-03-17T18:08:09.235Z,15.10
2019-03-17T18:10:46.239Z,15.00
2019-03-17T18:13:23.696Z,15.00
2019-03-17T18:16:01.347Z,15.00
2019-03-17T18:18:42.199Z,15.00
2019-03-17T18:21:20.006Z,15.00
2019-03-17T18:24:03.725Z,15.00
2019-03-17T18:26:42.367Z,14.90
2019-03-17T18:29:20.547Z,14.90
2019-03-17T18:31:59.170Z,14.90
2019-03-17T18:34:37.202Z,14.90
2019-03-17T18:37:24.179Z,14.90
2019-03-17T18:40:03.639Z,14.90
2019-03-17T18:42:45.210Z,15.00
2019-03-17T18:45:30.455Z,15.00
2019-03-17T18:48:07.514Z,15.10
2019-03-17T18:50:44.657Z,15.00
2019-03-17T18:53:21.737Z,14.30
2019-03-17T18:55:59.084Z,13.70
2019-03-17T18:58:36.362Z,13.10
2019-03-17T19:01:13.390Z,12.40
2019-03-17T19:03:50.487Z,12.00
2019-03-17T19:06:27.584Z,11.70
2019-03-17T19:09:06.129Z,11.40
2019-03-17T19:11:43.230Z,11.00
2019-03-17T19:14:20.378Z,10.70
2019-03-17T19:16:58.171Z,10.40
2019-03-17T19:19:35.293Z,10.20
2019-03-17T19:22:12.360Z,10.10
2019-03-17T19:24:49.473Z,9.80
2019-03-17T19:27:26.645Z,9.70
2019-03-17T19:30:05.027Z,9.50
2019-03-17T19:32:42.537Z,9.30
2019-03-17T19:35:20.706Z,9.20
2019-03-17T19:37:57.768Z,9.10
2019-03-17T19:40:34.866Z,8.90
2019-03-17T19:43:11.882Z,8.80
2019-03-17T19:45:49.112Z,8.70
2019-03-17T19:48:26.099Z,8.60
2019-03-17T19:51:03.217Z,8.50
2019-03-17T19:53:40.228Z,8.50
2019-03-17T19:56:18.276Z,8.40
2019-03-17T19:58:55.318Z,8.40
2019-03-17T20:01:35.117Z,8.30
2019-03-17T20:04:12.201Z,8.30
2019-03-17T20:06:49.308Z,8.20
2019-03-17T20:09:35.515Z,8.10
2019-03-17T20:12:12.647Z,8.10
2019-03-17T20:14:49.638Z,8.00
2019-03-17T20:17:26.721Z,8.00
2019-03-17T20:20:04.859Z,8.00
2019-03-17T20:22:42.038Z,8.00
2019-03-17T20:25:19.072Z,8.00
2019-03-17T20:27:56.160Z,7.90
2019-03-17T20:30:33.343Z,7.90
2019-03-17T20:33:11.016Z,7.90
2019-03-17T20:35:48.073Z,7.90
2019-03-17T20:38:27.917Z,7.90
2019-03-17T20:41:04.940Z,7.90
2019-03-17T20:43:42.016Z,7.90
2019-03-17T20:46:20.286Z,7.80
2019-03-17T20:48:57.354Z,7.80
2019-03-17T20:51:34.373Z,7.70
2019-03-17T20:54:11.388Z,7.70
2019-03-17T20:56:48.521Z,7.60
2019-03-17T20:59:25.571Z,7.60
2019-03-17T21:02:02.603Z,7.50
2019-03-17T21:04:39.702Z,7.50
2019-03-17T21:07:17.600Z,7.50
2019-03-17T21:09:54.920Z,7.40
2019-03-17T21:12:32.016Z,7.40
2019-03-17T21:15:11.443Z,7.40
2019-03-17T21:17:48.499Z,7.30
2019-03-17T21:20:25.907Z,7.30
2019-03-17T21:23:02.951Z,7.30
2019-03-17T21:25:40.047Z,7.20
2019-03-17T21:28:18.645Z,7.20
2019-03-17T21:30:55.908Z,7.10
2019-03-17T21:33:33.119Z,7.10
2019-03-17T21:36:10.206Z,7.10
2019-03-17T21:38:47.216Z,7.00
2019-03-17T21:41:24.336Z,7.00
2019-03-17T21:44:01.313Z,7.00
2019-03-17T21:46:38.483Z,7.00
2019-03-17T21:49:15.581Z,6.90
2019-03-17T21:51:52.665Z,6.90
2019-03-17T21:54:32.212Z,6.90
2019-03-17T21:57:09.253Z,6.90
2019-03-17T21:59:46.328Z,6.90
2019-03-17T22:02:23.420Z,6.90
2019-03-17T22:05:00.481Z,6.90
2019-03-17T22:07:48.779Z,7.00
2019-03-17T22:10:18.181Z,6.90
2019-03-17T22:12:55.213Z,6.90
2019-03-17T22:15:32.253Z,6.90
2019-03-17T22:18:09.317Z,6.80
2019-03-17T22:20:46.366Z,6.80
2019-03-17T22:23:23.410Z,6.80
2019-03-17T22:26:06.179Z,6.80
2019-03-17T22:28:43.237Z,6.80
2019-03-17T22:31:20.506Z,6.80
2019-03-17T22:33:58.073Z,6.80
2019-03-17T22:36:35.102Z,6.80
2019-03-17T22:39:12.223Z,6.80
2019-03-17T22:41:49.259Z,6.70
2019-03-17T22:44:28.114Z,6.70
2019-03-17T22:47:05.059Z,6.70
2019-03-17T22:49:43.363Z,6.70
2019-03-17T22:52:20.411Z,6.70
2019-03-17T22:54:57.510Z,6.70
2019-03-17T22:57:34.552Z,6.70
2019-03-17T23:03:29.822Z,6.60
2019-03-17T23:06:06.919Z,6.60
2019-03-17T23:08:43.972Z,6.60
2019-03-17T23:11:21.080Z,6.60
2019-03-17T23:13:58.115Z,6.60
2019-03-17T23:16:35.384Z,6.50
2019-03-17T23:19:12.383Z,6.50
2019-03-17T23:21:49.486Z,6.50
2019-03-17T23:24:26.547Z,6.50
2019-03-17T23:27:03.618Z,6.50
2019-03-17T23:29:40.608Z,6.40
2019-03-17T23:32:17.704Z,6.50
2019-03-17T23:34:56.393Z,6.40
2019-03-17T23:37:33.468Z,6.50
2019-03-17T23:40:14.591Z,6.40
2019-03-17T23:42:51.734Z,6.40
2019-03-17T23:45:28.752Z,6.40
2019-03-17T23:48:06.290Z,6.40
2019-03-17T23:50:45.214Z,6.40
2019-03-17T23:53:22.785Z,6.40
2019-03-17T23:56:00.381Z,6.40
2019-03-17T23:58:37.659Z,6.40
